Time;durP1;ratioP1;P1;durP2;ratioP2;P2;SDS_P1;SDS_P2;PMS_P1;PMS_P2;Temp;Humidity;BMP_temperature;BMP_pressure;BME280_temperature;BME280_humidity;BME280_pressure;Samples;Min_cycle;Max_cycle;Signal;HPM_P1;HPM_P2
2024/03/02 00:01:10;;;;;;;1.05;0.60;;;;;;;4.44;100.00;99818.78;5094325;28;20020;-79
2024/03/02 00:03:36;;;;;;;1.20;0.57;;;;;;;4.41;100.00;99838.31;5095038;28;20028;-79
2024/03/02 00:06:02;;;;;;;2.25;0.95;;;;;;;4.39;100.00;99834.97;5094968;28;20429;-78
2024/03/02 00:08:29;;;;;;;4.07;1.00;;;;;;;4.36;100.00;99843.09;5076108;28;20028;-79
2024/03/02 00:10:59;;;;;;;1.75;0.80;;;;;;;4.34;100.00;99837.13;5094517;28;20044;-79
2024/03/02 00:13:25;;;;;;;1.92;1.05;;;;;;;4.35;100.00;99839.63;5076052;28;20020;-78
2024/03/02 00:15:55;;;;;;;1.75;0.95;;;;;;;4.33;100.00;99848.63;5094357;28;20115;-79
2024/03/02 00:18:25;;;;;;;2.70;0.93;;;;;;;4.32;100.00;99854.88;5075792;28;20035;-78
2024/03/02 00:20:56;;;;;;;3.58;1.00;;;;;;;4.26;100.00;99864.09;5094299;28;20031;-78
2024/03/02 00:23:22;;;;;;;;;;;;;;;4.24;100.00;99866.84;5075698;28;20024;-78
2024/03/02 00:25:49;;;;;;;1.80;1.13;;;;;;;4.21;100.00;99869.72;5094220;28;19912;-78
2024/03/02 00:28:19;;;;;;;1.52;1.10;;;;;;;4.18;100.00;99867.31;5093330;28;20030;-79
2024/03/02 00:31:04;;;;;;;4.18;1.30;;;;;;;4.15;100.00;99864.09;5093487;28;20027;-79
2024/03/02 00:33:35;;;;;;;6.22;1.10;;;;;;;4.11;100.00;99860.03;5093542;28;20027;-79
2024/03/02 00:36:03;;;;;;;2.47;1.00;;;;;;;4.07;100.00;99859.44;5093789;28;20020;-79
2024/03/02 00:38:29;;;;;;;1.10;1.00;;;;;;;4.03;100.00;99861.47;5092983;28;20119;-79
2024/03/02 00:40:56;;;;;;;4.03;0.90;;;;;;;4.00;100.00;99851.19;5093825;28;20063;-79
2024/03/02 00:43:59;;;;;;;2.22;0.90;;;;;;;3.99;100.00;99856.59;5093241;28;20429;-79
2024/03/02 00:46:25;;;;;;;4.05;1.08;;;;;;;3.95;100.00;99860.41;5092879;28;20031;-79
2024/03/02 00:48:57;;;;;;;2.65;0.98;;;;;;;3.89;100.00;99859.91;5093697;28;20028;-80
2024/03/02 00:51:24;;;;;;;1.20;1.10;;;;;;;3.85;100.00;99861.13;5093458;28;20024;-79
2024/03/02 00:53:52;;;;;;;2.05;1.00;;;;;;;3.85;100.00;99855.88;5093363;28;20036;-78
2024/03/02 00:56:18;;;;;;;1.42;1.10;;;;;;;3.83;100.00;99870.09;5093670;28;20079;-79
2024/03/02 00:58:43;;;;;;;2.33;1.20;;;;;;;3.81;100.00;99851.78;5093494;28;20401;-79
2024/03/02 01:01:09;;;;;;;1.55;0.88;;;;;;;3.78;100.00;99846.78;5093256;28;20401;-79
2024/03/02 01:03:35;;;;;;;0.90;0.90;;;;;;;3.78;100.00;99856.47;5093005;28;20129;-79
2024/03/02 01:06:01;;;;;;;2.50;1.10;;;;;;;3.74;100.00;99855.84;5092958;28;20040;-79
2024/03/02 01:08:26;;;;;;;3.38;1.20;;;;;;;3.74;100.00;99853.22;5092812;28;20098;-80
2024/03/02 01:10:52;;;;;;;1.13;1.02;;;;;;;3.74;100.00;99857.66;5093063;28;20020;-80
2024/03/02 01:13:17;;;;;;;1.65;1.10;;;;;;;3.73;100.00;99850.72;5092800;28;20443;-87
2024/03/02 01:15:43;;;;;;;3.58;1.20;;;;;;;3.72;100.00;99852.50;5093123;28;20541;-79
2024/03/02 01:18:09;;;;;;;1.20;1.10;;;;;;;3.70;100.00;99836.84;5093049;28;20398;-80
2024/03/02 01:20:34;;;;;;;3.83;1.67;;;;;;;3.71;100.00;99835.88;5092865;28;20428;-80
2024/03/02 01:23:00;;;;;;;1.88;1.20;;;;;;;3.70;100.00;99850.00;5093193;28;20047;-79
2024/03/02 01:25:25;;;;;;;2.08;1.27;;;;;;;3.70;100.00;99875.47;5092492;28;20036;-79
2024/03/02 01:27:50;;;;;;;1.83;1.25;;;;;;;3.70;100.00;99873.69;5092503;28;20097;-79
2024/03/02 01:30:16;;;;;;;2.15;1.30;;;;;;;3.70;100.00;99871.06;5092788;28;20111;-79
2024/03/02 01:32:41;;;;;;;1.20;1.10;;;;;;;3.74;100.00;99886.59;5092379;28;20032;-80
2024/03/02 01:35:07;;;;;;;1.30;0.95;;;;;;;3.74;100.00;99887.44;5092754;28;20028;-79
2024/03/02 01:37:33;;;;;;;1.02;0.95;;;;;;;3.77;100.00;99886.38;5074101;28;20027;-79
2024/03/02 01:39:58;;;;;;;4.10;0.88;;;;;;;3.77;100.00;99895.09;5092605;28;20107;-79
2024/03/02 01:42:24;;;;;;;1.60;1.02;;;;;;;3.79;100.00;99887.06;5092072;28;20051;-79
2024/03/02 01:44:50;;;;;;;0.65;0.65;;;;;;;3.79;100.00;99876.53;5092449;28;20066;-79
2024/03/02 01:47:15;;;;;;;5.40;1.05;;;;;;;3.75;100.00;99872.47;5092360;28;20031;-79
2024/03/02 01:49:40;;;;;;;3.03;0.82;;;;;;;3.71;100.00;99879.78;5090914;28;20380;-78
2024/03/02 01:52:06;;;;;;;2.85;0.88;;;;;;;3.66;100.00;99890.66;5092495;28;20031;-79
2024/03/02 01:54:34;;;;;;;3.03;0.85;;;;;;;3.65;100.00;99888.13;5091951;28;20302;-79
2024/03/02 01:57:00;;;;;;;1.85;0.88;;;;;;;3.64;100.00;99884.69;5092272;28;20036;-79
2024/03/02 01:59:26;;;;;;;0.70;0.50;;;;;;;3.65;100.00;99893.41;5092184;28;20043;-80
2024/03/02 02:01:53;;;;;;;1.27;0.82;;;;;;;3.65;100.00;99899.50;5092108;28;20047;-80
2024/03/02 02:04:21;;;;;;;2.58;0.85;;;;;;;3.63;100.00;99890.88;5092127;28;20028;-79
2024/03/02 02:06:47;;;;;;;1.73;1.05;;;;;;;3.64;100.00;99891.72;5091205;28;20052;-79
2024/03/02 02:09:12;;;;;;;0.98;0.85;;;;;;;3.65;100.00;99903.94;5091814;28;20035;-79
2024/03/02 02:11:37;;;;;;;1.15;1.05;;;;;;;3.65;100.00;99894.22;5091207;28;20020;-81
2024/03/02 02:14:03;;;;;;;1.25;1.13;;;;;;;3.70;100.00;99897.38;5091889;28;20116;-79
2024/03/02 02:16:28;;;;;;;0.80;0.80;;;;;;;3.72;100.00;99897.25;5072978;28;20027;-80
2024/03/02 02:18:53;;;;;;;1.95;1.40;;;;;;;3.78;100.00;99898.56;5073394;28;20032;-79
2024/03/02 02:21:22;;;;;;;2.78;1.38;;;;;;;3.81;100.00;99893.91;5091642;28;20415;-79
2024/03/02 02:23:48;;;;;;;1.92;1.63;;;;;;;3.83;100.00;99896.41;5091200;28;20541;-78
2024/03/02 02:26:14;;;;;;;1.95;1.65;;;;;;;3.85;100.00;99899.75;5091452;28;20032;-79
2024/03/02 02:28:46;;;;;;;2.40;2.20;;;;;;;3.86;100.00;99896.16;5090963;28;20109;-79
2024/03/02 02:31:11;;;;;;;5.35;2.88;;;;;;;3.84;100.00;99898.91;5091201;28;20024;-79
2024/03/02 02:33:39;;;;;;;4.32;3.20;;;;;;;3.85;100.00;99899.75;5091601;28;20304;-79
2024/03/02 02:36:05;;;;;;;5.53;2.95;;;;;;;3.85;100.00;99908.50;5091581;28;20460;-79
2024/03/02 02:38:33;;;;;;;3.53;3.03;;;;;;;3.84;100.00;99904.19;5091145;28;20028;-80
2024/03/02 02:40:58;;;;;;;6.32;3.05;;;;;;;3.88;100.00;99903.00;5091414;28;20027;-79
2024/03/02 02:43:24;;;;;;;5.25;3.20;;;;;;;3.89;100.00;99894.13;5091361;28;20529;-79
2024/03/02 02:45:49;;;;;;;3.38;2.88;;;;;;;3.93;100.00;99889.47;5090706;28;20054;-79
2024/03/02 02:48:14;;;;;;;4.15;3.00;;;;;;;3.97;100.00;99884.78;5090993;28;20032;-79
2024/03/02 02:50:41;;;;;;;4.82;3.15;;;;;;;3.97;100.00;99888.28;5072423;28;20122;-80
2024/03/02 02:53:09;;;;;;;3.58;3.20;;;;;;;3.98;100.00;99886.47;5091054;28;20077;-79
2024/03/02 02:55:34;;;;;;;3.72;2.97;;;;;;;3.97;100.00;99890.91;5090831;28;20101;-79
2024/03/02 02:58:00;;;;;;;3.20;2.72;;;;;;;3.94;100.00;99890.31;5091197;28;20044;-78
2024/03/02 03:00:25;;;;;;;3.63;3.20;;;;;;;3.89;100.00;99891.50;5072618;28;20081;-78
2024/03/02 03:02:50;;;;;;;4.32;3.05;;;;;;;3.92;100.00;99884.34;5090736;28;20066;-79
2024/03/02 03:05:17;;;;;;;3.72;3.00;;;;;;;3.94;100.00;99885.91;5090617;28;20439;-80
2024/03/02 03:07:44;;;;;;;3.75;2.80;;;;;;;3.96;100.00;99898.94;5090847;28;20108;-80
2024/03/02 03:10:09;;;;;;;4.07;2.83;;;;;;;4.00;100.00;99897.72;5091239;28;20048;-79
2024/03/02 03:12:35;;;;;;;7.00;2.67;;;;;;;4.02;100.00;99901.09;5090688;28;20446;-80
2024/03/02 03:15:02;;;;;;;3.83;2.65;;;;;;;4.04;100.00;99905.25;5072403;28;20080;-80
2024/03/02 03:17:28;;;;;;;3.80;2.30;;;;;;;4.09;100.00;99906.69;5090616;28;20024;-80
2024/03/02 03:19:54;;;;;;;2.35;1.90;;;;;;;4.08;100.00;99899.78;5090631;28;20035;-80
2024/03/02 03:22:20;;;;;;;3.53;2.03;;;;;;;4.08;100.00;99902.41;5091058;28;20028;-80
2024/03/02 03:24:45;;;;;;;4.05;2.10;;;;;;;4.08;100.00;99905.03;5090613;28;20024;-79
2024/03/02 03:27:13;;;;;;;4.03;2.17;;;;;;;4.06;100.00;99908.63;5090747;28;20101;-79
2024/03/02 03:29:38;;;;;;;2.63;2.10;;;;;;;4.05;100.00;99908.75;5090384;28;20024;-79
2024/03/02 03:32:05;;;;;;;2.50;2.20;;;;;;;4.06;100.00;99905.13;5090755;28;20085;-80
2024/03/02 03:34:34;;;;;;;3.28;2.28;;;;;;;4.05;100.00;99906.94;5072052;28;20325;-79
2024/03/02 03:36:59;;;;;;;2.92;2.30;;;;;;;4.06;100.00;99907.75;5090533;28;20028;-78
2024/03/02 03:39:25;;;;;;;2.85;2.25;;;;;;;4.05;100.00;99920.09;5090319;28;20110;-79
2024/03/02 03:41:50;;;;;;;4.47;3.03;;;;;;;4.05;100.00;99916.66;5090343;28;20041;-79
2024/03/02 03:44:16;;;;;;;4.97;2.50;;;;;;;4.05;100.00;99912.19;5090822;28;20406;-79
2024/03/02 03:46:41;;;;;;;3.35;2.45;;;;;;;4.04;100.00;99907.06;5090207;28;20064;-79
2024/03/02 03:49:07;;;;;;;5.57;2.47;;;;;;;4.04;100.00;99910.53;5090703;28;20024;-79
2024/03/02 03:51:33;;;;;;;5.82;2.40;;;;;;;4.05;100.00;99917.47;5090633;28;20024;-79
2024/03/02 03:53:58;;;;;;;5.25;2.65;;;;;;;4.03;100.00;99902.75;5090195;28;20028;-79
2024/03/02 03:56:24;;;;;;;4.43;2.72;;;;;;;4.05;100.00;99908.75;5090464;28;20043;-79
2024/03/02 03:58:49;;;;;;;4.07;2.70;;;;;;;4.06;100.00;99920.94;5089808;28;20107;-79
2024/03/02 04:01:14;;;;;;;3.50;2.60;;;;;;;4.06;100.00;99920.94;5090205;28;20130;-80
2024/03/02 04:03:40;;;;;;;3.40;2.53;;;;;;;4.08;100.00;99921.66;5090519;28;20032;-79
2024/03/02 04:06:05;;;;;;;2.88;2.15;;;;;;;4.09;100.00;99918.09;5089932;28;20493;-80
2024/03/02 04:08:30;;;;;;;2.85;2.17;;;;;;;4.10;100.00;99925.00;5072306;28;20024;-79
2024/03/02 04:10:56;;;;;;;4.60;2.65;;;;;;;4.10;100.00;99926.81;5071704;28;20051;-79
2024/03/02 04:13:21;;;;;;;4.10;2.40;;;;;;;4.10;100.00;99927.63;5092097;28;20055;-79
2024/03/02 04:15:46;;;;;;;2.95;2.03;;;;;;;4.09;100.00;99930.38;5075113;28;20031;-80
2024/03/02 04:18:13;;;;;;;6.25;2.40;;;;;;;4.08;100.00;99926.94;5075817;28;20114;-81
2024/03/02 04:20:38;;;;;;;3.08;1.88;;;;;;;4.06;100.00;99932.31;5094010;28;20107;-79
2024/03/02 04:23:04;;;;;;;4.75;2.55;;;;;;;4.03;100.00;99931.69;5093084;28;20074;-79
2024/03/02 04:25:29;;;;;;;4.47;2.38;;;;;;;4.02;100.00;99925.59;5093827;28;20027;-80
2024/03/02 04:27:55;;;;;;;7.32;2.10;;;;;;;4.01;100.00;99929.19;5075199;28;20400;-80
2024/03/02 04:30:20;;;;;;;5.57;1.95;;;;;;;4.00;100.00;99940.69;5093829;28;20028;-80
2024/03/02 04:32:46;;;;;;;2.33;2.13;;;;;;;3.97;100.00;99930.41;5075021;28;20173;-81
2024/03/02 04:35:12;;;;;;;2.88;2.10;;;;;;;3.94;100.00;99922.75;5093467;28;20023;-79
2024/03/02 04:37:38;;;;;;;2.15;1.80;;;;;;;3.88;100.00;99929.31;5093339;28;20025;-80
2024/03/02 04:40:07;;;;;;;4.80;2.22;;;;;;;3.83;100.00;99930.63;5093332;28;20031;-80
2024/03/02 04:42:33;;;;;;;2.35;1.70;;;;;;;3.72;100.00;99931.44;5093431;28;20044;-80
2024/03/02 04:44:58;;;;;;;2.75;2.10;;;;;;;3.61;100.00;99934.03;5092753;28;20474;-81
2024/03/02 04:47:23;;;;;;;2.05;1.85;;;;;;;3.51;100.00;99942.63;5075083;28;20409;-80
2024/03/02 04:49:49;;;;;;;3.40;1.80;;;;;;;3.45;100.00;99943.09;5075022;28;20024;-81
2024/03/02 04:52:14;;;;;;;3.35;2.08;;;;;;;3.46;100.00;99946.56;5093090;28;20433;-79
2024/03/02 04:57:23;;;;;;;6.35;2.13;;;;;;;3.56;100.00;99965.97;5093439;28;20470;-79
2024/03/02 04:59:49;;;;;;;3.20;1.98;;;;;;;3.62;100.00;99962.88;5074631;28;20036;-84
2024/03/02 05:02:14;;;;;;;3.45;2.00;;;;;;;3.66;100.00;99963.50;5093381;28;20460;-79
2024/03/02 05:04:40;;;;;;;7.97;2.05;;;;;;;3.69;100.00;99963.25;5093189;28;20355;-80
2024/03/02 05:07:05;;;;;;;5.60;2.10;;;;;;;3.71;100.00;99967.44;5092057;28;20048;-79
2024/03/02 05:09:31;;;;;;;5.93;1.92;;;;;;;3.74;100.00;99966.38;5092703;28;20436;-80
2024/03/02 05:12:35;;;;;;;3.30;1.85;;;;;;;3.74;100.00;99958.47;5092608;28;20436;-79
2024/03/02 05:15:00;;;;;;;5.45;1.77;;;;;;;3.76;100.00;99960.97;5092401;28;20066;-80
2024/03/02 05:17:25;;;;;;;2.05;1.50;;;;;;;3.74;100.00;99963.72;5092811;28;20048;-80
2024/03/02 05:19:51;;;;;;;4.75;1.60;;;;;;;3.78;100.00;99962.56;5092673;28;20035;-87
2024/03/02 05:22:16;;;;;;;3.17;1.90;;;;;;;3.76;100.00;99969.72;5092267;28;20428;-79
2024/03/02 05:24:42;;;;;;;2.75;1.60;;;;;;;3.76;100.00;99979.41;5092198;28;20024;-80
2024/03/02 05:27:07;;;;;;;2.45;1.60;;;;;;;3.73;100.00;99974.38;5092215;28;20028;-79
2024/03/02 05:29:32;;;;;;;4.25;1.55;;;;;;;3.70;100.00;99970.19;5092417;28;20345;-80
2024/03/02 05:31:58;;;;;;;2.70;1.40;;;;;;;3.74;100.00;99987.41;5092336;28;20061;-80
2024/03/02 05:34:23;;;;;;;5.38;1.50;;;;;;;3.77;100.00;99984.56;5092187;28;20028;-80
2024/03/02 05:36:48;;;;;;;3.75;1.35;;;;;;;3.77;100.00;99981.09;5092243;28;20475;-79
2024/03/02 05:39:14;;;;;;;3.47;1.30;;;;;;;3.80;100.00;99986.13;5092087;28;20031;-79
2024/03/02 05:41:39;;;;;;;4.68;1.42;;;;;;;3.79;100.00;99982.66;5092235;28;20048;-79
2024/03/02 05:44:05;;;;;;;2.95;1.25;;;;;;;3.84;100.00;99987.56;5091825;28;20032;-79
2024/03/02 05:46:30;;;;;;;1.17;1.00;;;;;;;3.81;100.00;99987.81;5074004;28;20115;-79
2024/03/02 05:48:55;;;;;;;1.20;1.02;;;;;;;3.83;100.00;99980.63;5092087;28;20028;-80
2024/03/02 05:51:21;;;;;;;2.40;1.10;;;;;;;3.77;100.00;99984.56;5092026;28;20361;-80
2024/03/02 05:53:46;;;;;;;1.50;1.00;;;;;;;3.70;100.00;99978.06;5092272;28;20427;-79
2024/03/02 05:56:12;;;;;;;4.40;1.70;;;;;;;3.59;100.00;99970.16;5091880;28;20078;-79
2024/03/02 05:59:23;;;;;;;2.92;1.63;;;;;;;3.51;100.00;99978.63;5092001;28;20168;-79
2024/03/02 06:01:28;;;;;;;3.65;1.10;;;;;;;3.48;100.00;99974.44;5080782;28;20067;-80
2024/03/02 06:03:56;;;;;;;1.52;1.00;;;;;;;3.47;100.00;99983.28;5092311;28;20031;-80
2024/03/02 06:06:25;;;;;;;3.30;1.20;;;;;;;3.51;100.00;99986.53;5091872;28;20108;-80
2024/03/02 06:08:51;;;;;;;1.83;1.13;;;;;;;3.58;100.00;99986.91;5091677;28;20024;-81
2024/03/02 06:11:16;;;;;;;4.38;1.73;;;;;;;3.62;100.00;99989.19;5091375;28;20096;-80
2024/03/02 06:13:42;;;;;;;3.15;1.30;;;;;;;3.67;100.00;99975.66;5091958;28;20043;-80
2024/03/02 06:16:08;;;;;;;4.05;1.48;;;;;;;3.72;100.00;99989.34;5091176;28;20050;-80
2024/03/02 06:18:34;;;;;;;3.45;1.45;;;;;;;3.74;100.00;99990.03;5091939;28;20050;-80
2024/03/02 06:21:00;;;;;;;6.38;1.60;;;;;;;3.78;100.00;99988.88;5091667;28;20028;-88
2024/03/02 06:23:26;;;;;;;5.25;1.30;;;;;;;3.80;100.00;99991.38;5091686;28;20016;-80
2024/03/02 06:25:52;;;;;;;2.90;1.30;;;;;;;3.83;100.00;99997.25;5091397;28;20054;-79
2024/03/02 06:28:17;;;;;;;2.47;1.15;;;;;;;3.85;100.00;99990.09;5091208;28;20032;-79
2024/03/02 06:30:43;;;;;;;5.50;1.52;;;;;;;3.85;100.00;99995.34;5091831;28;20020;-79
2024/03/02 06:33:09;;;;;;;4.55;1.50;;;;;;;3.88;100.00;99994.25;5091218;28;20459;-79
2024/03/02 06:35:35;;;;;;;4.28;1.30;;;;;;;3.88;100.00;99997.75;5091371;28;20064;-79
2024/03/02 06:38:00;;;;;;;6.10;1.20;;;;;;;3.90;100.00;99997.63;5091523;28;20077;-79
2024/03/02 06:40:25;;;;;;;2.35;1.17;;;;;;;3.92;100.00;99992.25;5091194;28;20108;-80
2024/03/02 06:42:51;;;;;;;2.90;1.15;;;;;;;3.94;100.00;99988.56;5091547;28;20051;-80
2024/03/02 06:45:16;;;;;;;5.70;1.30;;;;;;;3.95;100.00;99987.56;5090962;28;20057;-79
2024/03/02 06:47:42;;;;;;;4.88;1.20;;;;;;;3.96;100.00;99985.81;5091798;28;20115;-80
2024/03/02 06:50:08;;;;;;;4.50;1.60;;;;;;;3.94;100.00;99988.56;5073031;28;20443;-81
2024/03/02 06:52:33;;;;;;;2.75;1.10;;;;;;;3.92;100.00;99995.72;5091306;28;20424;-79
2024/03/02 06:54:58;;;;;;;6.05;1.23;;;;;;;3.89;100.00;100004.66;5091469;28;20020;-80
2024/03/02 06:57:24;;;;;;;2.90;1.30;;;;;;;3.91;100.00;100006.34;5090690;28;20063;-79
2024/03/02 06:59:51;;;;;;;2.92;1.23;;;;;;;3.92;100.00;100008.03;5056440;28;20024;-80
2024/03/02 07:02:16;;;;;;;5.43;1.15;;;;;;;3.94;100.00;100019.28;5091040;28;20039;-79
2024/03/02 07:04:42;;;;;;;3.10;1.20;;;;;;;3.93;100.00;100013.19;5072925;28;20032;-80
2024/03/02 07:07:08;;;;;;;5.57;1.40;;;;;;;3.95;100.00;100016.53;5090796;28;20066;-80
2024/03/02 07:09:33;;;;;;;2.97;1.48;;;;;;;3.96;100.00;100020.03;5091519;28;20043;-80
2024/03/02 07:11:58;;;;;;;7.13;1.40;;;;;;;3.94;100.00;100024.53;5055979;28;20023;-80
2024/03/02 07:14:55;;;;;;;1.75;1.20;;;;;;;3.92;100.00;100022.03;5090544;28;20043;-80
2024/03/02 07:17:12;;;;;;;3.40;1.38;;;;;;;3.86;100.00;100023.31;5090479;28;20032;-79
2024/03/02 07:19:38;;;;;;;2.17;1.20;;;;;;;3.83;100.00;100025.34;5072666;28;20088;-79
2024/03/02 07:22:06;;;;;;;2.63;1.20;;;;;;;3.85;100.00;100020.81;5090799;28;20600;-80
2024/03/02 07:24:32;;;;;;;3.25;1.27;;;;;;;3.86;100.00;100031.22;5090752;28;20026;-79
2024/03/02 07:26:57;;;;;;;4.32;1.17;;;;;;;3.89;100.00;100043.31;5090525;28;20024;-79
2024/03/02 07:29:22;;;;;;;8.43;1.60;;;;;;;3.92;100.00;100040.44;5090504;28;20102;-79
2024/03/02 07:31:48;;;;;;;2.97;1.30;;;;;;;3.99;100.00;100040.84;5090609;28;20020;-79
2024/03/02 07:34:13;;;;;;;3.95;1.38;;;;;;;4.04;100.00;100036.06;5090346;28;20032;-80
2024/03/02 07:36:38;;;;;;;3.00;1.27;;;;;;;4.12;100.00;100036.31;5072077;28;20031;-79
2024/03/02 07:39:04;;;;;;;2.63;1.30;;;;;;;4.16;100.00;100036.91;5090311;28;20443;-81
2024/03/02 07:41:29;;;;;;;3.95;1.27;;;;;;;4.24;100.00;100037.19;5089890;28;20039;-80
2024/03/02 07:43:55;;;;;;;4.72;1.50;;;;;;;4.33;100.00;100046.13;5090384;28;20071;-80
2024/03/02 07:46:20;;;;;;;8.45;1.50;;;;;;;4.44;100.00;100051.44;5090056;28;20046;-80
2024/03/02 07:48:46;;;;;;;2.90;1.45;;;;;;;4.52;100.00;100043.78;5093616;28;20507;-81
2024/03/02 07:51:11;;;;;;;7.93;1.45;;;;;;;4.58;100.00;100043.31;5094127;28;20098;-82
2024/03/02 07:53:36;;;;;;;2.00;1.40;;;;;;;4.68;100.00;100051.31;5075910;28;20107;-79
2024/03/02 07:56:03;;;;;;;4.38;1.40;;;;;;;4.82;100.00;100047.59;5094416;28;20302;-79
2024/03/02 07:58:30;;;;;;;3.40;1.33;;;;;;;4.91;100.00;100038.97;5093726;28;20020;-78
2024/03/02 08:00:56;;;;;;;2.72;1.30;;;;;;;4.95;100.00;100039.53;5094378;28;20321;-78
2024/03/02 08:03:21;;;;;;;7.38;1.33;;;;;;;4.92;100.00;100031.88;5094187;28;20035;-80
2024/03/02 08:05:47;;;;;;;5.60;1.73;;;;;;;4.90;100.00;100028.53;5058857;28;20471;-80
2024/03/02 08:08:12;;;;;;;6.50;1.50;;;;;;;4.88;100.00;100027.81;5094037;28;20032;-79
2024/03/02 08:10:37;;;;;;;6.15;1.50;;;;;;;4.83;100.00;100030.81;5075522;28;20108;-79
2024/03/02 08:13:03;;;;;;;5.50;1.20;;;;;;;4.83;100.00;100022.91;5093786;28;20039;-81
2024/03/02 08:15:28;;;;;;;4.38;1.13;;;;;;;4.90;100.00;100025.91;5093440;28;20039;-81
2024/03/02 08:17:54;;;;;;;3.22;1.30;;;;;;;4.93;100.00;100041.47;5093729;28;20395;-81
2024/03/02 08:20:19;;;;;;;4.50;1.52;;;;;;;5.00;100.00;100039.19;5093366;28;20024;-80
2024/03/02 08:22:45;;;;;;;4.38;1.20;;;;;;;5.10;100.00;100045.38;5075408;28;20103;-80
2024/03/02 08:25:11;;;;;;;3.47;1.30;;;;;;;5.18;100.00;100045.63;5075300;28;20016;-80
2024/03/02 08:27:36;;;;;;;3.75;1.90;;;;;;;5.25;100.00;100043.31;5074916;28;20134;-79
2024/03/02 08:30:06;;;;;;;3.75;1.30;;;;;;;5.34;100.00;100053.13;5075215;28;20016;-79
2024/03/02 08:32:31;;;;;;;4.07;1.75;;;;;;;5.39;100.00;100050.09;5093029;28;20028;-80
2024/03/02 08:34:58;;;;;;;7.38;1.33;;;;;;;5.39;100.00;100039.56;5093470;28;20382;-80
2024/03/02 08:37:23;;;;;;;3.10;1.20;;;;;;;5.52;100.00;100040.22;5092969;28;20055;-79
2024/03/02 08:39:49;;;;;;;5.75;1.30;;;;;;;5.62;100.00;100035.03;5074924;28;20054;-80
2024/03/02 08:42:15;;;;;;;6.65;1.65;;;;;;;5.68;100.00;100038.97;5058395;28;20024;-80
2024/03/02 08:44:40;;;;;;;3.25;1.45;;;;;;;5.77;100.00;100036.41;5074697;28;20440;-80
2024/03/02 08:47:06;;;;;;;5.82;1.45;;;;;;;5.85;100.00;100043.66;5074827;28;20026;-80
2024/03/02 08:49:31;;;;;;;3.55;1.30;;;;;;;5.98;100.00;100048.81;5092474;28;20081;-79
2024/03/02 08:51:56;;;;;;;3.80;1.40;;;;;;;6.15;100.00;100047.38;5074575;28;20024;-79
2024/03/02 08:54:22;;;;;;;6.30;1.42;;;;;;;6.40;100.00;100040.84;5092582;28;20420;-77
2024/03/02 08:56:50;;;;;;;6.38;1.40;;;;;;;6.86;100.00;100042.13;5092875;28;20049;-79
2024/03/02 08:59:16;;;;;;;3.75;1.30;;;;;;;7.48;100.00;100043.78;5092504;28;20027;-80
2024/03/02 09:01:42;;;;;;;6.78;1.10;;;;;;;7.91;100.00;100039.88;5092306;28;20017;-79
2024/03/02 09:04:10;;;;;;;4.65;1.55;;;;;;;8.34;100.00;100045.66;5092726;28;20020;-77
2024/03/02 09:06:37;;;;;;;5.20;1.63;;;;;;;9.03;100.00;100047.06;5092056;28;20051;-81
2024/03/02 09:09:04;;;;;;;5.63;1.30;;;;;;;9.94;100.00;100058.56;5092625;28;20024;-80
2024/03/02 09:11:30;;;;;;;4.22;1.30;;;;;;;10.90;100.00;100055.03;5092165;28;20065;-78
2024/03/02 09:13:56;;;;;;;4.13;1.23;;;;;;;12.09;100.00;100059.25;5092622;28;20110;-78
2024/03/02 09:16:21;;;;;;;4.93;1.50;;;;;;;12.58;100.00;100049.47;5092000;28;20020;-84
2024/03/02 09:18:47;;;;;;;4.20;1.25;;;;;;;13.21;100.00;100055.69;5071709;28;20123;-78
2024/03/02 09:21:12;;;;;;;6.53;1.33;;;;;;;13.76;100.00;100059.22;5089607;28;20387;-78
2024/03/02 09:23:40;;;;;;;6.72;1.33;;;;;;;13.59;100.00;100050.50;5073118;28;20118;-77
2024/03/02 09:26:05;;;;;;;3.63;1.10;;;;;;;13.75;100.00;100053.06;5091691;28;20034;-78
2024/03/02 09:28:30;;;;;;;4.88;1.58;;;;;;;13.72;100.00;100073.97;5091379;28;20016;-78
2024/03/02 09:30:56;;;;;;;7.18;1.45;;;;;;;13.74;100.00;100077.28;5072964;28;20024;-77
2024/03/02 09:33:27;;;;;;;4.22;1.10;;;;;;;13.71;100.00;100066.97;5092015;28;20027;-77
2024/03/02 09:35:53;;;;;;;6.93;1.60;;;;;;;13.79;100.00;100080.25;5073832;28;20024;-78
2024/03/02 09:38:18;;;;;;;7.75;1.85;;;;;;;13.91;100.00;100061.94;5092026;28;20026;-76
2024/03/02 09:40:44;;;;;;;4.20;1.10;;;;;;;13.82;100.00;100063.84;5091657;28;20440;-76
2024/03/02 09:43:13;;;;;;;8.07;1.42;;;;;;;13.83;100.00;100064.69;5072751;28;20038;-76
2024/03/02 09:45:39;;;;;;;7.82;1.67;;;;;;;13.99;100.00;100067.25;5072878;28;20042;-76
2024/03/02 09:48:05;;;;;;;6.70;1.60;;;;;;;14.40;100.00;100069.50;5073563;28;20031;-76
2024/03/02 09:50:30;;;;;;;2.83;1.20;;;;;;;15.15;100.00;100073.06;5091325;28;20431;-76
2024/03/02 09:52:56;;;;;;;4.70;1.52;;;;;;;15.27;100.00;100062.69;5073478;28;20020;-76
2024/03/02 09:55:22;;;;;;;3.88;1.08;;;;;;;15.09;100.00;100073.81;5091821;28;20028;-77
2024/03/02 09:57:50;;;;;;;7.68;1.60;;;;;;;14.99;100.00;100078.63;5091269;28;20505;-78
2024/03/02 10:00:16;;;;;;;5.13;1.45;;;;;;;14.80;100.00;100077.34;5091601;28;20036;-78
2024/03/02 10:02:44;;;;;;;7.57;1.25;;;;;;;14.67;100.00;100080.66;5091061;28;20016;-78
2024/03/02 10:05:10;;;;;;;5.28;1.30;;;;;;;14.40;100.00;100085.56;5091487;28;20023;-79
2024/03/02 10:07:35;;;;;;;3.67;1.10;;;;;;;15.17;100.00;100088.94;5090720;28;20091;-81
2024/03/02 10:10:13;;;;;;;3.83;1.08;;;;;;;15.74;100.00;100084.59;5090997;28;20428;-78
2024/03/02 10:12:39;;;;;;;5.60;1.38;;;;;;;15.46;100.00;100093.38;5072701;28;20111;-80
2024/03/02 10:15:05;;;;;;;4.22;1.20;;;;;;;15.90;100.00;100077.34;5072910;28;20055;-78
2024/03/02 10:17:31;;;;;;;5.45;1.63;;;;;;;15.21;100.00;100071.47;5091186;28;20054;-83
2024/03/02 10:19:57;;;;;;;3.85;1.40;;;;;;;14.25;100.00;100077.53;5091267;28;20030;-80
2024/03/02 10:22:23;;;;;;;4.18;1.27;;;;;;;13.66;100.00;100072.84;5086370;28;20028;-81
2024/03/02 10:24:49;;;;;;;7.72;1.30;;;;;;;13.72;100.00;100055.25;5090298;28;20028;-78
2024/03/02 10:27:26;;;;;;;4.68;1.20;;;;;;;14.79;100.00;100064.94;5090335;28;20050;-81
2024/03/02 10:29:51;;;;;;;9.18;1.33;;;;;;;14.45;100.00;100055.59;5090253;28;20203;-82
2024/03/02 10:32:17;;;;;;;4.68;1.38;;;;;;;14.76;100.00;100052.78;5072759;28;20039;-82
2024/03/02 10:34:44;;;;;;;7.03;1.50;;;;;;;15.02;100.00;100047.94;5089989;28;20485;-81
2024/03/02 10:37:13;;;;;;;6.85;1.40;;;;;;;15.11;100.00;100057.53;5090468;28;20031;-80
2024/03/02 10:39:40;;;;;;;7.20;1.50;;;;;;;15.40;100.00;100053.94;5090702;28;20020;-80
2024/03/02 10:42:09;;;;;;;7.30;1.40;;;;;;;15.11;100.00;100050.31;5072593;28;20031;-80
2024/03/02 10:44:35;;;;;;;7.20;1.27;;;;;;;14.74;100.00;100052.13;5090753;28;20024;-81
2024/03/02 10:47:04;;;;;;;5.20;1.20;;;;;;;14.06;100.00;100049.47;5090657;28;20039;-80
2024/03/02 10:49:31;;;;;;;5.43;1.40;;;;;;;14.70;100.00;100042.78;5090346;28;20095;-81
2024/03/02 10:51:58;;;;;;;3.30;1.08;;;;;;;14.73;100.00;100049.63;5071483;28;20387;-80
2024/03/02 10:54:26;;;;;;;4.03;1.20;;;;;;;14.57;100.00;100046.09;5090475;28;20058;-80
2024/03/02 10:56:53;;;;;;;6.00;1.10;;;;;;;14.21;100.00;100036.13;5090380;28;20016;-82
2024/03/02 10:59:31;;;;;;;6.35;1.50;;;;;;;14.49;100.00;100032.78;5072515;28;20026;-84
2024/03/02 11:01:58;;;;;;;9.15;1.77;;;;;;;14.36;100.00;100038.81;5071161;28;20028;-83
2024/03/02 11:04:29;;;;;;;4.63;1.40;;;;;;;13.69;100.00;100036.88;5090662;28;20027;-80
2024/03/02 11:07:16;;;;;;;9.23;2.05;;;;;;;13.67;100.00;100042.41;5067752;28;20063;-84
2024/03/02 11:09:49;;;;;;;6.50;1.38;;;;;;;13.39;100.00;100042.94;5069747;28;20021;-81
2024/03/02 11:12:48;;;;;;;8.30;2.55;;;;;;;13.26;100.00;100045.34;5069981;28;20043;-80
2024/03/02 11:15:19;;;;;;;5.72;1.60;;;;;;;12.40;100.00;100039.00;5038955;28;20025;-78
2024/03/02 11:17:46;;;;;;;6.47;1.75;;;;;;;12.06;100.00;100043.59;5055905;28;20034;-79
2024/03/02 11:20:12;;;;;;;6.05;1.40;;;;;;;11.82;100.00;100050.56;5069929;28;20023;-80
2024/03/02 11:22:38;;;;;;;9.70;1.58;;;;;;;11.68;100.00;100051.19;5072173;28;20428;-79
2024/03/02 11:25:03;;;;;;;6.47;2.28;;;;;;;11.25;100.00;100048.63;5073713;28;20074;-77
2024/03/02 11:27:51;;;;;;;5.65;1.50;;;;;;;10.88;100.00;100054.34;5073772;28;20042;-76
2024/03/02 11:30:34;;;;;;;2.95;1.17;;;;;;;10.54;100.00;100048.03;5073808;28;20103;-77